Archiv-/Tagesdaten

--Timestamp---	Temp	Chill	HIndex	Humid	Dewpt	 Wind 	HiWind	WindDir	Rain 	Barom	Solar	 ET  	 UV 
--------------	----	-----	------	-----	-----	------	------	-------	-----	-----	-----	-----	----
20100413 00:00	2.6	2.6	2.6	79	-0.7	2	3	90	0.0	1014.2	0	0.025	0.0
20100413 00:05	2.4	2.4	2.4	80	-0.7	0	2	90	0.0	1014.1	0	0.000	0.0
20100413 00:10	2.3	2.3	2.3	80	-0.8	0	0	-100000	0.0	1014.1	0	0.000	0.0
20100413 00:15	2.2	2.2	2.2	80	-0.9	0	0	-100000	0.0	1014.1	0	0.000	0.0
20100413 00:20	2.2	2.2	2.2	80	-0.9	0	2	90	0.0	1014.2	0	0.000	0.0
20100413 00:25	2.1	2.1	2.1	81	-0.9	0	0	-100000	0.0	1014.1	0	0.000	0.0
20100413 00:30	2.1	2.1	2.1	82	-0.6	0	0	-100000	0.0	1014.1	0	0.000	0.0
20100413 00:35	2.2	2.2	2.2	83	-0.4	0	0	-100000	0.0	1014.1	0	0.000	0.0
20100413 00:40	2.2	2.2	2.2	83	-0.4	0	0	-100000	0.0	1014.0	0	0.000	0.0
20100413 00:45	2.3	2.3	2.3	83	-0.3	3	5	90	0.0	1014.1	0	0.000	0.0
20100413 00:50	2.3	2.3	2.3	83	-0.3	2	6	90	0.0	1014.1	0	0.000	0.0
20100413 00:55	2.4	2.4	2.4	83	-0.2	2	6	90	0.0	1014.2	0	0.000	0.0
20100413 01:00	2.4	2.4	2.4	84	0.0	2	3	90	0.0	1014.2	0	0.000	0.0
20100413 01:05	2.4	2.4	2.4	84	0.0	0	0	-100000	0.0	1014.0	0	0.000	0.0
20100413 01:10	2.6	2.6	2.6	84	0.1	0	0	-100000	0.0	1013.9	0	0.000	0.0
20100413 01:15	2.6	2.6	2.6	84	0.1	0	0	-100000	0.0	1013.9	0	0.000	0.0
20100413 01:20	2.7	2.7	2.7	84	0.2	0	3	90	0.0	1013.9	0	0.000	0.0
20100413 01:25	2.7	2.7	2.7	84	0.3	0	2	90	0.0	1013.9	0	0.000	0.0
20100413 01:30	2.8	2.8	2.8	83	0.2	0	0	-100000	0.0	1013.9	0	0.000	0.0
20100413 01:35	2.8	2.8	2.8	83	0.2	0	0	-100000	0.0	1013.9	0	0.000	0.0
20100413 01:40	2.9	2.9	2.9	83	0.3	0	0	-100000	0.0	1013.9	0	0.000	0.0
20100413 01:45	2.9	2.9	2.9	83	0.3	0	0	-100000	0.0	1013.8	0	0.000	0.0
20100413 01:50	3.0	3.0	3.0	83	0.4	0	0	-100000	0.0	1013.8	0	0.000	0.0
20100413 01:55	3.0	3.0	3.0	83	0.4	0	0	-100000	0.0	1013.7	0	0.000	0.0
20100413 02:00	3.0	3.0	3.0	83	0.4	0	0	-100000	0.0	1013.7	0	0.000	0.0
20100413 02:05	2.9	2.9	2.9	83	0.3	0	0	-100000	0.0	1013.6	0	0.000	0.0
20100413 02:10	2.9	2.9	2.9	83	0.3	0	0	-100000	0.0	1013.6	0	0.000	0.0
20100413 02:15	2.8	2.8	2.8	83	0.2	0	0	-100000	0.0	1013.5	0	0.000	0.0
20100413 02:20	2.7	2.7	2.7	83	0.1	0	0	-100000	0.0	1013.5	0	0.000	0.0
20100413 02:25	2.6	2.6	2.6	84	0.1	0	0	-100000	0.0	1013.5	0	0.000	0.0
20100413 02:30	2.4	2.4	2.4	84	0.0	0	0	-100000	0.0	1013.4	0	0.000	0.0
20100413 02:35	2.4	2.4	2.4	84	-0.0	0	0	-100000	0.0	1013.4	0	0.000	0.0
20100413 02:40	2.3	2.3	2.3	85	0.1	3	5	90	0.0	1013.4	0	0.000	0.0
20100413 02:45	2.3	2.3	2.3	85	0.1	3	5	90	0.0	1013.4	0	0.000	0.0
20100413 02:50	2.3	2.3	2.3	85	0.1	2	5	90	0.0	1013.4	0	0.000	0.0
20100413 02:55	2.3	2.3	2.3	86	0.2	2	5	90	0.0	1013.4	0	0.000	0.0
20100413 03:00	2.3	2.3	2.3	86	0.2	0	5	90	0.0	1013.4	0	0.000	0.0
20100413 03:05	2.3	2.3	2.3	86	0.2	0	0	-100000	0.0	1013.4	0	0.000	0.0
20100413 03:10	2.3	2.3	2.3	86	0.2	0	0	-100000	0.0	1013.4	0	0.000	0.0
20100413 03:15	2.3	2.3	2.3	86	0.2	0	0	-100000	0.0	1013.3	0	0.000	0.0
20100413 03:20	2.3	2.3	2.3	86	0.2	0	0	-100000	0.0	1013.3	0	0.000	0.0
20100413 03:25	2.3	2.3	2.3	86	0.2	0	0	-100000	0.0	1013.3	0	0.000	0.0
20100413 03:30	2.3	2.3	2.3	86	0.2	0	0	-100000	0.0	1013.3	0	0.000	0.0
20100413 03:35	2.3	2.3	2.3	86	0.2	0	2	90	0.0	1013.3	0	0.000	0.0
20100413 03:40	2.3	2.3	2.3	86	0.2	3	5	90	0.0	1013.2	0	0.000	0.0
20100413 03:45	2.3	2.3	2.3	86	0.2	2	6	90	0.0	1013.3	0	0.000	0.0
20100413 03:50	2.3	2.3	2.3	86	0.2	2	5	90	0.0	1013.2	0	0.000	0.0
20100413 03:55	2.3	2.3	2.3	86	0.2	0	3	90	0.0	1013.2	0	0.000	0.0
20100413 04:00	2.2	2.2	2.2	86	0.1	3	5	90	0.0	1013.2	0	0.000	0.0
20100413 04:05	2.1	2.1	2.1	86	-0.0	3	6	90	0.0	1013.1	0	0.000	0.0
20100413 04:10	2.0	2.0	2.0	87	0.1	5	6	90	0.0	1013.2	0	0.000	0.0
20100413 04:15	1.9	1.9	1.9	87	0.0	3	6	90	0.0	1013.1	0	0.000	0.0
20100413 04:20	1.9	1.9	1.9	87	-0.0	3	5	90	0.0	1013.2	0	0.000	0.0
20100413 04:25	1.8	1.8	1.8	87	-0.1	2	5	90	0.0	1013.2	0	0.000	0.0
20100413 04:30	1.7	1.7	1.7	87	-0.2	2	5	90	0.0	1013.2	0	0.000	0.0
20100413 04:35	1.6	1.6	1.6	87	-0.3	3	5	90	0.0	1013.2	0	0.000	0.0
20100413 04:40	1.5	1.5	1.5	87	-0.4	3	6	90	0.0	1013.2	0	0.000	0.0
20100413 04:45	1.4	1.4	1.4	87	-0.5	2	3	90	0.0	1013.1	0	0.000	0.0
20100413 04:50	1.3	1.3	1.3	88	-0.4	3	5	90	0.0	1013.4	0	0.000	0.0
20100413 04:55	1.3	1.3	1.3	88	-0.4	2	5	90	0.0	1013.4	0	0.000	0.0
20100413 05:00	1.3	1.3	1.3	88	-0.5	2	3	90	0.0	1013.4	0	0.000	0.0
20100413 05:05	1.2	1.2	1.2	88	-0.6	3	5	90	0.0	1013.3	0	0.000	0.0
20100413 05:10	1.2	1.2	1.2	88	-0.6	3	6	90	0.0	1013.3	0	0.000	0.0
20100413 05:15	1.1	1.1	1.1	88	-0.7	2	5	90	0.0	1013.3	0	0.000	0.0
20100413 05:20	1.1	1.1	1.1	88	-0.7	0	2	90	0.0	1013.3	0	0.000	0.0
20100413 05:25	1.1	1.1	1.1	89	-0.6	2	5	90	0.0	1013.4	0	0.000	0.0
20100413 05:30	1.1	1.1	1.1	89	-0.6	0	2	90	0.0	1013.3	0	0.000	0.0
20100413 05:35	1.1	1.1	1.1	89	-0.6	0	0	-100000	0.0	1013.4	0	0.000	0.0
20100413 05:40	1.1	1.1	1.1	89	-0.5	0	0	-100000	0.0	1013.3	0	0.000	0.0
20100413 05:45	1.1	1.1	1.1	89	-0.5	0	0	-100000	0.0	1013.3	0	0.000	0.0
20100413 05:50	1.2	1.2	1.2	89	-0.4	0	0	-100000	0.0	1013.4	0	0.000	0.0
20100413 05:55	1.3	1.3	1.3	89	-0.3	0	2	90	0.0	1013.4	0	0.000	0.0
20100413 06:00	1.3	1.3	1.3	89	-0.3	0	3	90	0.0	1013.4	0	0.000	0.0
20100413 06:05	1.3	1.3	1.3	89	-0.3	2	3	90	0.0	1013.4	0	0.000	0.0
20100413 06:10	1.3	1.3	1.3	89	-0.3	2	3	90	0.0	1013.3	0	0.000	0.0
20100413 06:15	1.3	1.3	1.3	89	-0.3	0	0	-100000	0.0	1013.3	0	0.000	0.0
20100413 06:20	1.4	1.4	1.4	89	-0.2	0	2	90	0.0	1013.3	0	0.000	0.0
20100413 06:25	1.4	1.4	1.4	89	-0.2	0	0	-100000	0.0	1013.4	0	0.000	0.0
20100413 06:30	1.5	1.5	1.5	89	-0.1	0	0	-100000	0.0	1013.4	0	0.000	0.0
20100413 06:35	1.6	1.6	1.6	89	-0.1	0	2	90	0.0	1013.4	0	0.000	0.0
20100413 06:40	1.6	1.6	1.6	89	-0.1	0	0	-100000	0.0	1013.4	0	0.000	0.0
20100413 06:45	1.6	1.6	1.6	89	-0.0	0	2	225	0.0	1013.5	4	0.000	0.0
20100413 06:50	1.7	1.7	1.7	89	0.1	0	0	-100000	0.0	1013.4	5	0.000	0.0
20100413 06:55	1.7	1.7	1.7	89	0.1	0	0	-100000	0.0	1013.5	8	0.000	0.0
20100413 07:00	1.8	1.8	1.8	89	0.2	0	0	-100000	0.0	1013.5	12	0.000	0.0
20100413 07:05	1.8	1.8	1.8	89	0.2	0	0	-100000	0.0	1013.7	18	0.000	0.0
20100413 07:10	1.9	1.9	1.9	89	0.3	0	0	-100000	0.0	1013.7	19	0.000	0.0
20100413 07:15	1.9	1.9	1.9	89	0.3	2	3	225	0.0	1013.6	19	0.000	0.0
20100413 07:20	2.0	2.0	2.0	89	0.4	0	3	225	0.0	1013.6	23	0.000	0.0
20100413 07:25	2.1	2.1	2.1	89	0.4	0	0	-100000	0.0	1013.6	36	0.000	0.0
20100413 07:30	2.1	2.1	2.1	89	0.5	0	0	-100000	0.0	1013.5	50	0.000	0.0
20100413 07:35	2.2	2.2	2.2	89	0.6	0	0	-100000	0.0	1013.6	43	0.000	0.0
20100413 07:40	2.3	2.3	2.3	89	0.7	0	2	225	0.0	1013.7	47	0.000	0.0
20100413 07:45	2.5	2.5	2.5	89	0.9	0	5	225	0.0	1013.7	55	0.000	0.0
20100413 07:50	2.6	2.6	2.6	89	1.0	0	3	225	0.0	1013.7	65	0.000	0.0
20100413 07:55	2.7	2.7	2.7	89	1.1	2	5	225	0.0	1013.7	75	0.000	0.0
20100413 08:00	2.8	2.8	2.8	88	1.0	0	5	225	0.0	1013.8	80	0.025	0.0
20100413 08:05	2.9	2.9	2.9	88	1.2	2	5	225	0.0	1013.9	90	0.000	0.0
20100413 08:10	3.0	3.0	3.0	88	1.2	0	2	225	0.0	1013.9	109	0.000	0.0
20100413 08:15	3.2	3.2	3.2	87	1.2	0	3	225	0.0	1013.8	160	0.000	0.0
20100413 08:20	3.4	3.4	3.4	87	1.5	2	5	225	0.0	1013.9	267	0.000	0.3
20100413 08:25	3.8	3.8	3.8	87	1.9	2	6	225	0.0	1013.8	306	0.000	0.5
20100413 08:30	4.3	4.3	4.3	86	2.2	3	8	112	0.0	1013.8	337	0.000	0.6
20100413 08:35	4.6	4.6	4.6	83	2.0	5	8	112	0.0	1013.9	183	0.000	0.6
20100413 08:40	4.7	4.7	4.7	83	2.1	5	10	135	0.0	1013.8	240	0.000	0.6
20100413 08:45	4.8	3.4	4.8	81	1.9	6	11	112	0.0	1013.7	290	0.000	0.7
20100413 08:50	4.7	3.3	4.7	81	1.7	6	11	112	0.0	1013.7	216	0.000	0.7
20100413 08:55	4.7	4.7	4.7	81	1.7	5	10	135	0.0	1013.7	160	0.000	0.7
20100413 09:00	4.6	4.6	4.6	80	1.5	5	8	135	0.0	1013.8	137	0.076	0.8
20100413 09:05	4.5	4.5	4.5	79	1.2	5	10	135	0.0	1013.8	147	0.000	0.8
20100413 09:10	4.5	3.0	4.5	80	1.4	6	11	112	0.0	1013.8	165	0.000	0.8
20100413 09:15	4.5	3.0	4.5	80	1.4	6	11	112	0.0	1013.7	187	0.000	0.8
20100413 09:20	4.5	4.5	4.5	80	1.4	5	11	112	0.0	1013.8	154	0.000	0.8
20100413 09:25	4.5	4.5	4.5	80	1.4	3	8	112	0.0	1013.8	150	0.000	0.8
20100413 09:30	4.5	4.5	4.5	80	1.4	3	6	112	0.0	1013.8	162	0.000	0.7
20100413 09:35	4.6	4.6	4.6	80	1.5	5	10	112	0.0	1013.8	229	0.000	0.9
20100413 09:40	4.7	3.3	4.7	79	1.4	6	11	135	0.0	1013.9	226	0.000	1.1
20100413 09:45	4.8	4.8	4.8	79	1.4	5	10	135	0.0	1013.9	185	0.000	1.0
20100413 09:50	4.8	4.8	4.8	78	1.3	2	6	135	0.0	1013.8	149	0.000	0.8
20100413 09:55	4.7	4.7	4.7	79	1.4	3	10	68	0.0	1013.8	137	0.000	0.7
20100413 10:00	4.7	3.3	4.7	78	1.2	6	10	68	0.0	1013.8	139	0.076	0.7
20100413 10:05	4.7	3.3	4.7	79	1.4	6	11	68	0.0	1013.9	181	0.000	0.9
20100413 10:10	4.7	4.7	4.7	79	1.4	5	8	45	0.0	1014.0	202	0.000	1.1
20100413 10:15	4.8	4.8	4.8	80	1.7	5	10	22	0.0	1014.0	186	0.000	1.0
20100413 10:20	4.9	4.9	4.9	79	1.6	5	8	68	0.0	1014.0	178	0.000	1.0
20100413 10:25	5.1	5.1	5.1	79	1.7	5	10	68	0.0	1014.0	137	0.000	0.8
20100413 10:30	5.0	3.1	5.0	78	1.5	8	16	68	0.0	1014.0	122	0.000	0.7
20100413 10:35	4.9	3.1	4.9	78	1.4	8	13	68	0.0	1014.0	157	0.000	0.9
20100413 10:40	4.9	4.9	4.9	78	1.4	5	10	68	0.0	1014.0	220	0.000	1.2
20100413 10:45	5.0	3.1	5.0	78	1.5	8	14	45	0.0	1014.0	265	0.000	1.5
20100413 10:50	5.2	5.2	5.2	79	1.8	3	10	45	0.0	1014.1	267	0.000	1.5
20100413 10:55	5.3	5.3	5.3	78	1.8	3	8	45	0.0	1013.9	229	0.000	1.3
20100413 11:00	5.4	5.4	5.4	77	1.7	5	14	112	0.0	1014.0	228	0.102	1.3
20100413 11:05	5.6	4.2	5.6	77	1.8	6	16	45	0.0	1014.1	286	0.000	1.7
20100413 11:10	5.8	4.1	5.8	77	2.1	8	13	68	0.0	1014.1	399	0.000	2.2
20100413 11:15	5.8	4.6	5.8	75	1.7	6	14	68	0.0	1014.0	324	0.000	2.0
20100413 11:20	5.8	4.1	5.8	76	1.9	8	13	68	0.0	1014.1	348	0.000	2.1
20100413 11:25	6.0	4.8	6.0	74	1.7	6	11	68	0.0	1014.1	280	0.000	1.9
20100413 11:30	5.9	4.7	5.9	74	1.7	6	11	68	0.0	1014.1	288	0.000	1.8
20100413 11:35	6.0	6.0	6.0	74	1.7	5	11	68	0.0	1014.1	369	0.000	2.3
20100413 11:40	6.2	4.9	6.2	74	1.9	6	16	22	0.0	1014.0	372	0.000	2.4
20100413 11:45	6.2	4.1	6.2	73	1.7	10	18	45	0.0	1014.1	336	0.000	2.4
20100413 11:50	6.2	4.9	6.2	74	1.9	6	14	45	0.0	1014.0	381	0.000	2.8
20100413 11:55	6.4	6.4	6.4	73	2.0	5	10	112	0.0	1014.0	417	0.000	3.1
20100413 12:00	6.8	5.7	6.8	73	2.3	6	18	22	0.0	1013.9	830	0.178	4.0
20100413 12:05	6.8	5.3	6.8	71	1.9	8	13	45	0.0	1014.0	551	0.000	3.4
20100413 12:10	6.8	5.7	6.8	70	1.7	6	13	45	0.0	1014.0	658	0.000	3.3
20100413 12:15	6.9	5.8	6.9	71	2.1	6	11	90	0.0	1013.9	779	0.000	4.0
20100413 12:20	7.2	6.2	7.2	69	1.9	6	18	22	0.0	1013.8	778	0.000	4.1
20100413 12:25	7.3	7.3	7.3	70	2.2	5	10	68	0.0	1013.8	749	0.000	4.1
20100413 12:30	7.7	7.7	7.7	69	2.3	3	10	45	0.0	1013.6	774	0.000	4.1
20100413 12:35	8.1	6.7	8.1	67	2.3	8	11	68	0.0	1013.7	773	0.000	4.2
20100413 12:40	8.1	8.1	8.1	66	2.1	5	10	68	0.0	1013.7	794	0.000	4.3
20100413 12:45	8.2	8.2	8.2	67	2.4	5	11	68	0.0	1013.7	784	0.000	4.3
20100413 12:50	8.4	8.4	8.4	65	2.2	5	11	0	0.0	1013.6	798	0.000	4.3
20100413 12:55	8.6	7.3	8.6	64	2.1	8	19	68	0.0	1013.7	883	0.000	4.4
20100413 13:00	8.4	6.3	8.4	65	2.2	13	21	45	0.0	1013.7	380	0.330	3.3
20100413 13:05	8.5	7.6	8.5	63	1.9	6	14	0	0.0	1013.5	901	0.000	4.3
20100413 13:10	8.8	7.2	8.8	64	2.3	10	24	68	0.0	1013.5	678	0.000	3.5
20100413 13:15	9.0	7.2	9.0	63	2.3	11	19	22	0.0	1013.3	837	0.000	4.5
20100413 13:20	9.1	7.6	9.1	62	2.2	10	18	45	0.0	1013.3	851	0.000	4.4
20100413 13:25	9.0	7.8	9.0	63	2.3	8	18	68	0.0	1013.3	330	0.000	3.0
20100413 13:30	9.2	8.4	9.2	61	2.0	6	11	90	0.0	1013.3	840	0.000	4.5
20100413 13:35	9.4	8.7	9.4	59	1.8	6	16	68	0.0	1013.2	872	0.000	4.6
20100413 13:40	9.5	8.8	9.5	59	1.9	6	16	68	0.0	1013.2	883	0.000	4.6
20100413 13:45	9.6	8.5	9.6	58	1.7	8	16	68	0.0	1013.2	836	0.000	4.5
20100413 13:50	9.7	8.6	9.7	58	1.8	8	16	135	0.0	1013.2	819	0.000	4.5
20100413 13:55	9.9	8.6	9.9	56	1.5	10	16	68	0.0	1013.1	811	0.000	4.4
20100413 14:00	10.0	10.0	10.0	58	2.1	2	11	45	0.0	1013.0	820	0.381	4.4
20100413 14:05	10.4	10.4	10.4	52	1.0	6	11	68	0.0	1013.0	873	0.000	4.4
20100413 14:10	10.6	10.6	10.6	56	2.2	10	19	68	0.0	1013.0	921	0.000	4.2
20100413 14:15	10.4	10.4	10.4	56	2.0	10	19	45	0.0	1013.1	911	0.000	3.8
20100413 14:20	10.5	10.5	10.5	56	2.1	10	19	0	0.0	1012.9	888	0.000	4.2
20100413 14:25	10.7	10.7	10.7	53	1.5	10	16	68	0.0	1012.9	552	0.000	3.2
20100413 14:30	10.6	10.6	10.6	54	1.6	8	18	22	0.0	1012.8	816	0.000	3.9
20100413 14:35	10.7	10.7	10.7	51	1.0	6	14	68	0.0	1012.8	803	0.000	4.0
20100413 14:40	11.1	11.1	11.1	54	2.1	10	23	68	0.0	1012.7	848	0.000	4.0
20100413 14:45	10.9	10.9	10.9	51	1.2	13	19	68	0.0	1012.7	550	0.000	3.3
20100413 14:50	10.9	10.9	10.9	54	2.0	5	11	68	0.0	1012.4	745	0.000	3.7
20100413 14:55	11.2	11.2	11.2	51	1.4	8	16	68	0.0	1012.5	721	0.000	3.6
20100413 15:00	11.1	11.1	11.1	51	1.4	8	19	45	0.0	1012.5	690	0.406	3.4
20100413 15:05	11.2	11.2	11.2	52	1.7	6	16	68	0.0	1012.4	387	0.000	2.8
20100413 15:10	11.1	11.1	11.1	52	1.6	11	19	68	0.0	1012.4	286	0.000	2.1
20100413 15:15	10.9	10.9	10.9	52	1.4	14	26	45	0.0	1012.3	805	0.000	2.7
20100413 15:20	10.8	10.8	10.8	53	1.6	10	18	45	0.0	1012.4	283	0.000	2.1
20100413 15:25	10.8	10.8	10.8	54	1.8	6	16	45	0.0	1012.3	744	0.000	3.0
20100413 15:30	11.3	11.3	11.3	54	2.3	8	18	68	0.0	1012.1	818	0.000	2.9
20100413 15:35	11.3	11.3	11.3	52	1.8	10	18	68	0.0	1012.1	775	0.000	2.4
20100413 15:40	11.4	11.4	11.4	52	1.9	11	21	68	0.0	1012.2	649	0.000	2.2
20100413 15:45	11.2	11.2	11.2	52	1.7	10	16	45	0.0	1012.1	206	0.000	1.5
20100413 15:50	10.7	10.7	10.7	53	1.5	8	16	45	0.0	1012.1	205	0.000	1.6
20100413 15:55	10.6	10.6	10.6	54	1.6	6	10	68	0.0	1012.1	229	0.000	1.7
20100413 16:00	10.6	10.6	10.6	54	1.7	8	14	45	0.0	1012.1	292	0.254	2.1
20100413 16:05	11.1	11.1	11.1	54	2.2	5	10	0	0.0	1012.0	767	0.000	2.4
20100413 16:10	11.7	11.7	11.7	49	1.4	3	10	315	0.0	1012.0	798	0.000	2.3
20100413 16:15	12.0	12.0	12.0	49	1.6	5	14	315	0.0	1011.8	570	0.000	1.7
20100413 16:20	11.8	11.8	11.8	50	1.7	8	18	68	0.0	1011.9	207	0.000	1.0
20100413 16:25	11.4	11.4	11.4	50	1.4	10	16	68	0.0	1011.9	190	0.000	1.1
20100413 16:30	11.1	11.1	11.1	51	1.3	8	18	68	0.0	1011.9	174	0.000	1.1
20100413 16:35	10.9	10.9	10.9	50	0.9	5	11	45	0.0	1011.9	183	0.000	1.1
20100413 16:40	10.9	10.9	10.9	50	0.9	10	18	68	0.0	1011.9	221	0.000	1.2
20100413 16:45	11.0	11.0	11.0	50	1.0	10	14	45	0.0	1012.0	230	0.000	1.2
20100413 16:50	10.9	10.9	10.9	51	1.2	11	19	22	0.0	1011.9	267	0.000	1.2
20100413 16:55	10.9	10.9	10.9	51	1.2	11	19	45	0.0	1012.0	368	0.000	1.3
20100413 17:00	11.1	11.1	11.1	51	1.3	10	16	68	0.0	1011.9	395	0.229	1.3
20100413 17:05	11.2	11.2	11.2	52	1.7	8	18	45	0.0	1011.9	330	0.000	1.2
20100413 17:10	11.2	11.2	11.2	52	1.7	11	18	68	0.0	1011.9	240	0.000	1.1
20100413 17:15	11.0	11.0	11.0	51	1.3	11	18	68	0.0	1011.9	200	0.000	0.9
20100413 17:20	10.8	10.8	10.8	53	1.6	11	19	68	0.0	1012.0	192	0.000	0.8
20100413 17:25	10.7	10.7	10.7	55	2.0	13	21	22	0.0	1012.0	182	0.000	0.7
20100413 17:30	10.8	10.8	10.8	53	1.6	10	23	45	0.0	1011.9	159	0.000	0.7
20100413 17:35	10.7	10.7	10.7	55	2.0	10	16	22	0.0	1012.0	149	0.000	0.7
20100413 17:40	10.7	10.7	10.7	54	1.8	10	18	68	0.0	1011.9	193	0.000	0.7
20100413 17:45	10.8	10.8	10.8	53	1.6	10	19	45	0.0	1011.9	199	0.000	0.7
20100413 17:50	10.9	10.9	10.9	54	1.9	11	19	22	0.0	1011.8	324	0.000	0.7
20100413 17:55	10.9	10.9	10.9	54	2.0	11	19	45	0.0	1011.7	287	0.000	0.6
20100413 18:00	11.0	11.0	11.0	54	2.0	10	16	45	0.0	1011.8	235	0.152	0.6
20100413 18:05	10.9	10.9	10.9	54	2.0	8	16	45	0.0	1011.8	156	0.000	0.4
20100413 18:10	10.7	10.7	10.7	54	1.7	11	19	45	0.0	1011.8	133	0.000	0.0
20100413 18:15	10.5	10.5	10.5	55	1.8	13	19	45	0.0	1011.7	130	0.000	0.0
20100413 18:20	10.6	10.6	10.6	56	2.1	10	18	45	0.0	1011.7	136	0.000	0.0
20100413 18:25	10.7	10.7	10.7	55	2.0	10	18	45	0.0	1011.7	166	0.000	0.0



Please note the license to use and transfer of this data:
http://creativecommons.org/licenses/by-nc-sa/3.0/deed.en

Bitte beachten sie die Lizenz zur Verwertung und Weitergabe der Daten:
http://creativecommons.org/licenses/by-nc-sa/3.0/deed.de

zurück zur Übersicht der Archivdaten (Monats und Tagesdaten)

Cookies helfen bei der Bereitstellung von Inhalten. Durch die Nutzung dieser Seiten erklärst du dich damit einverstanden, dass Cookies auf deinem Rechner gespeichert werden. Weitere Information